Time;durP1;ratioP1;P1;durP2;ratioP2;P2;SDS_P1;SDS_P2;PMS_P1;PMS_P2;Temp;Humidity;BMP_temperature;BMP_pressure;BME280_temperature;BME280_humidity;BME280_pressure;Samples;Min_cycle;Max_cycle;Signal;HPM_P1;HPM_P2
2022/01/16 00:01:45;;;;;;;27.52;18.00;;;2.50;99.90;;;;;;5009176;28;20425;-57
2022/01/16 00:04:09;;;;;;;23.63;16.17;;;2.50;99.90;;;;;;5009536;28;20148;-57
2022/01/16 00:06:41;;;;;;;29.20;17.88;;;2.50;99.90;;;;;;5007702;28;20576;-54
2022/01/16 00:09:07;;;;;;;24.30;16.83;;;2.50;99.90;;;;;;5009994;28;20030;-57
2022/01/16 00:11:35;;;;;;;27.25;17.40;;;2.50;99.90;;;;;;5008885;28;20144;-59
2022/01/16 00:14:02;;;;;;;25.75;16.77;;;2.40;99.90;;;;;;5010125;28;20065;-55
2022/01/16 00:16:28;;;;;;;24.63;16.27;;;2.40;99.90;;;;;;4990780;28;20538;-53
2022/01/16 00:18:54;;;;;;;27.58;16.95;;;2.40;99.90;;;;;;5008641;28;20477;-58
2022/01/16 00:21:32;;;;;;;24.23;15.60;;;2.40;99.90;;;;;;5009087;28;20040;-57
2022/01/16 00:23:58;;;;;;;26.63;18.08;;;2.30;99.90;;;;;;4990923;28;20511;-56
2022/01/16 00:26:24;;;;;;;27.20;18.17;;;2.30;99.90;;;;;;5008543;28;20108;-54
2022/01/16 00:28:50;;;;;;;26.05;15.18;;;2.30;99.90;;;;;;5009200;28;20488;-56
2022/01/16 00:31:17;;;;;;;26.67;16.85;;;2.30;99.90;;;;;;5007866;28;20072;-55
2022/01/16 00:33:44;;;;;;;24.25;17.25;;;2.20;99.90;;;;;;5011029;28;20069;-57
2022/01/16 00:36:11;;;;;;;29.70;17.13;;;2.20;99.90;;;;;;5008346;28;20029;-57
2022/01/16 00:38:40;;;;;;;29.20;18.00;;;2.20;99.90;;;;;;5009772;28;20422;-53
2022/01/16 00:41:05;;;;;;;27.83;16.95;;;2.20;99.90;;;;;;5009909;28;20034;-57
2022/01/16 00:43:31;;;;;;;28.17;17.92;;;2.20;99.90;;;;;;5009717;28;20117;-55
2022/01/16 00:45:57;;;;;;;26.05;16.77;;;2.20;99.90;;;;;;5009827;28;20458;-55
2022/01/16 00:48:22;;;;;;;29.50;18.75;;;2.10;99.90;;;;;;5009689;28;20030;-56
2022/01/16 00:50:48;;;;;;;27.58;17.83;;;2.10;99.90;;;;;;5006981;28;20026;-59
2022/01/16 00:53:14;;;;;;;26.50;17.13;;;2.10;99.90;;;;;;5009958;28;20029;-54
2022/01/16 00:55:41;;;;;;;24.05;15.48;;;2.10;99.90;;;;;;5008118;28;20045;-54
2022/01/16 00:58:06;;;;;;;28.70;15.82;;;2.10;99.90;;;;;;5008452;28;20038;-60
2022/01/16 01:00:33;;;;;;;26.83;17.38;;;2.10;99.90;;;;;;5007663;28;20033;-54
2022/01/16 01:03:02;;;;;;;26.08;16.23;;;2.00;99.90;;;;;;5008519;28;20610;-56
2022/01/16 01:05:28;;;;;;;23.02;15.32;;;2.00;99.90;;;;;;5008587;28;20037;-55
2022/01/16 01:07:54;;;;;;;25.80;16.55;;;2.00;99.90;;;;;;5008151;28;20026;-57
2022/01/16 01:10:24;;;;;;;26.48;16.58;;;2.00;99.90;;;;;;5006312;28;20040;-53
2022/01/16 01:12:53;;;;;;;29.33;17.50;;;1.90;99.90;;;;;;5005597;28;20040;-57
2022/01/16 01:15:30;;;;;;;25.00;15.82;;;1.90;99.90;;;;;;5006443;28;20080;-56
2022/01/16 01:17:56;;;;;;;22.73;15.75;;;1.90;99.90;;;;;;5007435;28;20069;-53
2022/01/16 01:20:23;;;;;;;22.83;16.05;;;1.90;99.90;;;;;;5006620;28;20575;-55
2022/01/16 01:22:51;;;;;;;22.65;15.50;;;1.80;99.90;;;;;;5007586;28;20481;-59
2022/01/16 01:25:17;;;;;;;25.52;16.48;;;1.80;99.90;;;;;;5007805;28;20404;-54
2022/01/16 01:27:44;;;;;;;22.30;16.20;;;1.80;99.90;;;;;;5007150;28;20076;-58
2022/01/16 01:30:15;;;;;;;22.02;15.65;;;1.80;99.90;;;;;;4991068;28;20052;-57
2022/01/16 01:32:42;;;;;;;24.13;16.10;;;1.80;99.90;;;;;;5006675;28;20121;-57
2022/01/16 01:35:11;;;;;;;23.17;15.82;;;1.80;99.90;;;;;;5006525;28;20034;-56
2022/01/16 01:37:36;;;;;;;24.60;16.25;;;1.70;99.90;;;;;;4989543;28;20037;-55
2022/01/16 01:40:11;;;;;;;25.83;16.27;;;1.70;99.90;;;;;;4998753;28;20042;-55
2022/01/16 01:51:02;;;;;;;28.73;16.63;;;1.70;99.90;;;;;;4985530;28;20474;-53
2022/01/16 01:51:25;;;;;;;24.30;16.13;;;1.70;99.90;;;;;;5005960;28;20033;-60
2022/01/16 01:53:54;;;;;;;24.63;15.25;;;1.70;99.90;;;;;;5005551;28;20022;-57
2022/01/16 01:56:23;;;;;;;23.05;16.17;;;1.70;99.90;;;;;;5005588;28;20025;-53
2022/01/16 01:58:49;;;;;;;24.00;15.35;;;1.70;99.90;;;;;;5004221;28;20049;-54
2022/01/16 02:01:15;;;;;;;27.05;17.25;;;1.70;99.90;;;;;;4985382;28;20053;-55
2022/01/16 02:06:14;;;;;;;22.92;15.18;;;1.70;99.90;;;;;;5006087;28;20022;-58
2022/01/16 02:08:42;;;;;;;26.52;16.50;;;1.80;99.90;;;;;;5006405;28;20033;-54
2022/01/16 02:11:10;;;;;;;31.13;18.23;;;1.80;99.90;;;;;;5005051;28;20033;-54
2022/01/16 02:13:47;;;;;;;23.77;17.30;;;1.90;99.90;;;;;;5005453;28;20158;-51
2022/01/16 02:31:12;;;;;;;34.05;21.17;;;2.00;99.90;;;;;;5006767;28;20589;-55
2022/01/16 02:33:22;;;;;;;34.40;19.85;;;2.00;99.90;;;;;;4987814;28;20491;-53
2022/01/16 02:35:45;;;;;;;29.80;20.92;;;2.00;99.90;;;;;;5006079;28;20092;-57
2022/01/16 02:38:12;;;;;;;35.55;22.23;;;2.10;99.90;;;;;;5007009;28;20079;-51
2022/01/16 02:40:41;;;;;;;33.78;21.67;;;2.00;99.90;;;;;;5006913;28;20060;-56
2022/01/16 02:43:07;;;;;;;36.45;22.80;;;2.10;99.90;;;;;;5005636;28;20102;-54
2022/01/16 02:45:36;;;;;;;37.25;23.60;;;2.10;99.90;;;;;;5007726;28;20572;-53
2022/01/16 02:48:06;;;;;;;38.03;22.98;;;2.10;99.90;;;;;;5006071;28;20018;-58
2022/01/16 02:50:34;;;;;;;35.60;21.55;;;2.00;99.90;;;;;;4989311;28;20033;-57
2022/01/16 02:53:00;;;;;;;37.53;23.52;;;2.00;99.90;;;;;;5006048;28;20026;-52
2022/01/16 02:55:26;;;;;;;40.22;22.50;;;2.00;99.90;;;;;;5007299;28;20034;-58
2022/01/16 02:57:54;;;;;;;37.05;22.75;;;2.00;99.90;;;;;;5006811;28;20089;-57
2022/01/16 03:00:22;;;;;;;41.38;25.30;;;2.00;99.90;;;;;;5004317;28;20135;-58
2022/01/16 03:02:49;;;;;;;43.30;25.23;;;2.00;99.90;;;;;;5004542;28;20027;-56
2022/01/16 03:05:16;;;;;;;39.78;25.08;;;2.00;99.90;;;;;;5006784;28;20029;-54
2022/01/16 03:07:42;;;;;;;43.05;24.67;;;2.00;99.90;;;;;;4988484;28;20468;-55
2022/01/16 03:12:50;;;;;;;43.55;25.23;;;2.00;99.90;;;;;;5004608;28;20037;-57
2022/01/16 03:15:17;;;;;;;39.33;23.80;;;2.00;99.90;;;;;;5006845;28;20053;-57
2022/01/16 03:21:53;;;;;;;45.92;26.70;;;2.00;99.90;;;;;;5004700;28;20137;-53
2022/01/16 03:23:23;;;;;;;42.05;24.67;;;2.10;99.90;;;;;;5008555;28;20186;-57
2022/01/16 03:25:49;;;;;;;43.58;24.25;;;2.10;99.90;;;;;;5012017;28;20100;-55
2022/01/16 03:28:15;;;;;;;45.10;24.92;;;2.10;99.90;;;;;;5010788;28;20076;-57
2022/01/16 03:30:41;;;;;;;47.47;24.45;;;2.10;99.90;;;;;;5009942;28;20038;-57
2022/01/16 03:33:07;;;;;;;45.22;23.75;;;2.10;99.90;;;;;;5009504;28;20435;-57
2022/01/16 03:35:33;;;;;;;44.97;26.67;;;2.10;99.90;;;;;;5011249;28;20273;-55
2022/01/16 03:38:00;;;;;;;47.35;26.80;;;2.10;99.90;;;;;;5011660;28;20456;-57
2022/01/16 03:40:25;;;;;;;48.70;24.80;;;2.10;99.90;;;;;;5009253;28;20381;-55
2022/01/16 03:42:52;;;;;;;43.88;25.42;;;2.10;99.90;;;;;;5009380;28;20030;-59
2022/01/16 03:45:17;;;;;;;42.65;25.17;;;2.10;99.90;;;;;;5008940;28;20018;-56
2022/01/16 03:47:43;;;;;;;48.63;27.33;;;2.10;99.90;;;;;;5008968;28;20034;-54
2022/01/16 03:50:09;;;;;;;46.38;25.42;;;2.20;99.90;;;;;;5009761;28;20404;-58
2022/01/16 03:52:35;;;;;;;44.90;25.45;;;2.20;99.90;;;;;;5009287;28;20327;-57
2022/01/16 03:55:03;;;;;;;43.35;25.25;;;2.20;99.90;;;;;;4990980;28;20109;-53
2022/01/16 03:57:28;;;;;;;45.42;25.33;;;2.10;99.90;;;;;;5010440;28;20034;-56
2022/01/16 03:59:54;;;;;;;40.78;23.92;;;2.20;99.90;;;;;;5009114;28;20038;-57
2022/01/16 04:02:20;;;;;;;45.08;25.00;;;2.20;99.90;;;;;;5008776;28;20107;-59
2022/01/16 04:04:45;;;;;;;41.47;24.33;;;2.20;99.90;;;;;;5008887;28;20085;-55
2022/01/16 04:07:17;;;;;;;41.25;23.50;;;2.20;99.90;;;;;;5010326;28;20547;-57
2022/01/16 04:09:43;;;;;;;51.58;26.05;;;2.20;99.90;;;;;;5009829;28;20402;-57
2022/01/16 04:12:10;;;;;;;42.85;25.27;;;2.20;99.90;;;;;;4992005;28;20057;-56
2022/01/16 04:17:16;;;;;;;44.80;25.55;;;2.30;99.90;;;;;;5007983;28;20141;-57
2022/01/16 04:19:42;;;;;;;37.42;23.10;;;2.30;99.90;;;;;;5010030;28;20018;-60
2022/01/16 04:22:08;;;;;;;41.60;23.77;;;2.30;99.90;;;;;;4991634;28;20032;-56
2022/01/16 04:24:35;;;;;;;38.88;23.30;;;2.30;99.90;;;;;;5007375;28;20084;-56
2022/01/16 04:27:01;;;;;;;43.45;22.40;;;2.30;99.90;;;;;;5008770;28;20092;-53
2022/01/16 04:29:27;;;;;;;42.47;23.02;;;2.30;99.90;;;;;;5008676;28;20484;-57
2022/01/16 04:31:53;;;;;;;40.28;22.73;;;2.30;99.90;;;;;;5009630;28;20031;-56
2022/01/16 04:34:18;;;;;;;41.55;22.33;;;2.30;99.90;;;;;;5008987;28;20352;-56
2022/01/16 04:36:44;;;;;;;41.50;23.52;;;2.30;99.90;;;;;;5008186;28;20034;-58
2022/01/16 04:39:15;;;;;;;42.72;22.98;;;2.30;99.90;;;;;;4991155;28;20022;-56
2022/01/16 04:44:26;;;;;;;40.97;21.92;;;2.30;99.90;;;;;;5031639;23;20064;-53
2022/01/16 04:46:52;;;;;;;45.38;24.55;;;2.30;99.90;;;;;;5009369;28;20033;-52
2022/01/16 04:49:17;;;;;;;51.35;24.88;;;2.30;99.90;;;;;;5010087;28;20026;-52
2022/01/16 04:51:43;;;;;;;42.55;24.17;;;2.30;99.90;;;;;;5010423;28;20094;-52
2022/01/16 04:54:09;;;;;;;51.58;26.83;;;2.30;99.90;;;;;;4997414;28;20388;-51
2022/01/16 04:56:34;;;;;;;51.83;27.08;;;2.30;99.90;;;;;;4992553;28;20030;-51
2022/01/16 04:59:00;;;;;;;53.40;27.02;;;2.30;99.90;;;;;;4991439;28;20504;-51
2022/01/16 05:01:25;;;;;;;55.67;28.48;;;2.30;99.90;;;;;;4989189;28;20030;-51
2022/01/16 05:03:51;;;;;;;56.17;29.27;;;2.30;99.90;;;;;;4990554;28;20072;-52
2022/01/16 05:06:17;;;;;;;61.97;28.50;;;2.30;99.90;;;;;;4990122;28;20050;-51
2022/01/16 05:08:43;;;;;;;57.65;27.55;;;2.30;99.90;;;;;;4989601;28;20115;-49
2022/01/16 05:11:09;;;;;;;54.35;26.83;;;2.30;99.90;;;;;;4989942;28;20535;-50
2022/01/16 05:18:48;;;;;;;53.13;27.15;;;2.30;99.90;;;;;;4991515;28;20096;-50
2022/01/16 05:21:13;;;;;;;55.47;27.42;;;2.30;99.90;;;;;;4991254;28;20060;-50
2022/01/16 05:23:42;;;;;;;51.80;25.98;;;2.30;99.90;;;;;;4990529;28;20070;-51
2022/01/16 05:26:09;;;;;;;47.92;25.80;;;2.30;99.90;;;;;;4989831;28;20424;-51
2022/01/16 05:28:35;;;;;;;46.72;25.60;;;2.30;99.90;;;;;;4973444;28;20577;-50
2022/01/16 05:31:01;;;;;;;48.30;24.63;;;2.30;99.90;;;;;;4990817;28;20030;-51
2022/01/16 05:33:26;;;;;;;46.03;23.48;;;2.30;99.90;;;;;;4990687;28;20521;-50
2022/01/16 05:35:52;;;;;;;46.53;24.55;;;2.30;99.90;;;;;;4973853;28;20076;-51
2022/01/16 05:38:18;;;;;;;39.47;22.10;;;2.40;99.90;;;;;;4990709;28;20026;-52
2022/01/16 05:40:44;;;;;;;40.08;21.73;;;2.30;99.90;;;;;;4991053;28;20041;-51
2022/01/16 05:43:10;;;;;;;39.90;21.00;;;2.40;99.90;;;;;;4990007;28;20388;-52
2022/01/16 05:45:36;;;;;;;34.85;19.75;;;2.40;99.90;;;;;;4990488;28;20129;-51
2022/01/16 05:48:03;;;;;;;36.22;19.60;;;2.30;99.90;;;;;;4972675;28;20169;-52
2022/01/16 05:50:31;;;;;;;39.35;20.63;;;2.30;99.90;;;;;;4990461;28;20045;-53
2022/01/16 05:52:57;;;;;;;30.90;18.48;;;2.40;99.90;;;;;;4973811;28;20057;-51
2022/01/16 05:55:23;;;;;;;32.85;18.48;;;2.40;99.90;;;;;;4988595;28;20594;-51
2022/01/16 05:57:48;;;;;;;35.05;20.48;;;2.40;99.90;;;;;;4989227;28;20189;-51
2022/01/16 06:00:15;;;;;;;37.53;21.33;;;2.40;99.90;;;;;;4971554;28;20022;-53
2022/01/16 06:02:41;;;;;;;34.03;20.33;;;2.40;99.90;;;;;;4988482;28;20415;-55
2022/01/16 06:05:07;;;;;;;39.78;21.08;;;2.40;99.90;;;;;;4989652;28;20023;-53
2022/01/16 06:07:33;;;;;;;37.40;22.80;;;2.40;99.90;;;;;;4989418;28;20061;-51
2022/01/16 06:09:59;;;;;;;46.05;21.92;;;2.40;99.90;;;;;;4989669;28;20108;-52
2022/01/16 06:12:25;;;;;;;39.92;21.20;;;2.40;99.90;;;;;;4988414;28;20084;-51
2022/01/16 06:14:50;;;;;;;39.75;21.55;;;2.40;99.90;;;;;;4989380;28;20466;-51
2022/01/16 06:17:16;;;;;;;42.75;22.33;;;2.40;99.90;;;;;;4990296;28;20030;-53
2022/01/16 06:19:42;;;;;;;48.58;24.27;;;2.40;99.90;;;;;;4990249;28;20036;-53
2022/01/16 06:22:07;;;;;;;41.03;21.05;;;2.40;99.90;;;;;;4990005;28;20110;-50
2022/01/16 06:24:33;;;;;;;45.17;22.45;;;2.40;99.90;;;;;;4989192;28;20037;-54
2022/01/16 06:26:58;;;;;;;45.88;22.13;;;2.40;99.90;;;;;;4989475;28;20049;-51
2022/01/16 06:29:25;;;;;;;42.80;21.08;;;2.50;99.90;;;;;;4989455;28;20469;-52
2022/01/16 06:31:50;;;;;;;41.53;21.77;;;2.50;99.90;;;;;;4989999;28;20035;-52
2022/01/16 06:34:16;;;;;;;48.45;22.35;;;2.40;99.90;;;;;;4989979;28;20124;-51
2022/01/16 06:36:42;;;;;;;45.58;23.05;;;2.40;99.90;;;;;;4989603;28;20035;-49
2022/01/16 06:39:10;;;;;;;40.75;20.15;;;2.40;99.90;;;;;;4989530;28;20030;-51
2022/01/16 06:41:37;;;;;;;39.45;21.90;;;2.40;99.90;;;;;;4989272;28;20034;-51
2022/01/16 06:44:03;;;;;;;39.08;20.50;;;2.40;99.90;;;;;;4988704;28;20034;-52
2022/01/16 06:46:29;;;;;;;42.47;20.90;;;2.40;99.90;;;;;;4972078;28;20061;-52
2022/01/16 06:48:55;;;;;;;41.78;21.65;;;2.40;99.90;;;;;;4990797;28;20050;-50
2022/01/16 06:51:21;;;;;;;43.72;21.17;;;2.40;99.90;;;;;;4990587;28;20096;-54
2022/01/16 06:53:48;;;;;;;41.38;20.80;;;2.50;99.90;;;;;;4990218;28;20409;-52
2022/01/16 06:56:15;;;;;;;37.22;21.85;;;2.50;99.90;;;;;;4988715;28;20066;-52
2022/01/16 06:58:42;;;;;;;44.30;22.67;;;2.50;99.90;;;;;;4992970;28;20405;-51
2022/01/16 07:01:09;;;;;;;45.45;23.73;;;2.50;99.90;;;;;;4975611;28;20327;-52
2022/01/16 07:03:35;;;;;;;43.72;22.23;;;2.40;99.90;;;;;;4993387;28;20026;-51
2022/01/16 07:06:01;;;;;;;40.83;21.83;;;2.40;99.90;;;;;;4993893;28;20088;-53
2022/01/16 07:08:28;;;;;;;40.38;22.60;;;2.40;99.90;;;;;;4993389;28;20031;-51
2022/01/16 07:10:56;;;;;;;43.35;22.42;;;2.40;99.90;;;;;;4993011;28;20083;-51
2022/01/16 07:13:22;;;;;;;47.97;23.70;;;2.50;99.90;;;;;;4992478;28;20042;-49
2022/01/16 07:15:49;;;;;;;41.85;23.02;;;2.40;99.90;;;;;;4993452;28;20038;-51
2022/01/16 07:18:14;;;;;;;47.22;21.90;;;2.40;99.90;;;;;;4992130;28;20030;-51
2022/01/16 07:20:40;;;;;;;41.38;21.58;;;2.50;99.90;;;;;;4993856;28;20458;-51
2022/01/16 07:23:06;;;;;;;47.45;23.60;;;2.50;99.90;;;;;;4991954;28;20030;-52
2022/01/16 07:25:32;;;;;;;50.17;23.75;;;2.50;99.90;;;;;;4993134;28;20038;-49
2022/01/16 07:27:57;;;;;;;41.47;22.90;;;2.50;99.90;;;;;;4993096;28;20038;-51
2022/01/16 07:30:23;;;;;;;44.47;23.15;;;2.50;99.90;;;;;;4976011;28;20399;-52
2022/01/16 07:32:48;;;;;;;45.20;23.85;;;2.50;99.90;;;;;;4992882;28;20038;-53
2022/01/16 07:35:14;;;;;;;50.22;23.67;;;2.50;99.90;;;;;;4992225;28;20030;-54
2022/01/16 07:37:39;;;;;;;47.38;23.42;;;2.50;99.90;;;;;;4992291;28;20062;-52
2022/01/16 07:40:06;;;;;;;44.92;21.85;;;2.50;99.90;;;;;;4991957;28;20073;-50
2022/01/16 07:42:32;;;;;;;51.67;25.45;;;2.50;99.90;;;;;;4973953;28;20161;-52
2022/01/16 07:44:58;;;;;;;44.83;23.23;;;2.50;99.90;;;;;;4991186;28;20449;-51
2022/01/16 07:47:24;;;;;;;45.70;24.13;;;2.50;99.90;;;;;;4991161;28;20121;-50
2022/01/16 07:49:49;;;;;;;45.97;23.15;;;2.50;99.90;;;;;;4975917;28;20035;-51
2022/01/16 07:52:15;;;;;;;49.08;24.27;;;2.50;99.90;;;;;;4975791;28;20030;-52
2022/01/16 07:54:40;;;;;;;48.83;25.50;;;2.50;99.90;;;;;;4992505;28;20121;-49
2022/01/16 07:57:06;;;;;;;47.05;24.45;;;2.50;99.90;;;;;;4992760;28;20058;-52
2022/01/16 07:59:31;;;;;;;51.67;25.33;;;2.50;99.90;;;;;;4992773;28;20092;-52
2022/01/16 08:01:57;;;;;;;52.58;25.75;;;2.50;99.90;;;;;;4991277;28;20042;-54
2022/01/16 08:04:23;;;;;;;58.15;28.00;;;2.50;99.90;;;;;;4993051;28;20023;-50
2022/01/16 08:06:48;;;;;;;55.05;26.80;;;2.50;99.90;;;;;;4993506;28;20026;-53
2022/01/16 08:09:14;;;;;;;51.88;26.50;;;2.50;99.90;;;;;;4991709;28;20036;-51
2022/01/16 08:11:39;;;;;;;53.70;26.65;;;2.50;99.90;;;;;;4974551;28;20378;-50
2022/01/16 08:14:05;;;;;;;51.58;27.33;;;2.50;99.90;;;;;;4992173;28;20033;-51
2022/01/16 08:16:30;;;;;;;52.92;27.40;;;2.50;99.90;;;;;;4991785;28;20575;-51
2022/01/16 08:18:56;;;;;;;55.85;28.55;;;2.50;99.90;;;;;;4993059;28;20118;-51
2022/01/16 08:21:21;;;;;;;52.80;26.33;;;2.50;99.90;;;;;;4991253;28;20417;-53
2022/01/16 08:23:47;;;;;;;64.35;27.45;;;2.50;99.90;;;;;;4992317;28;20282;-52
2022/01/16 08:26:13;;;;;;;57.83;27.40;;;2.50;99.90;;;;;;4991438;28;20437;-49
2022/01/16 08:28:38;;;;;;;56.47;26.63;;;2.50;99.90;;;;;;4990854;28;20049;-51
2022/01/16 08:31:04;;;;;;;59.65;27.20;;;2.50;99.90;;;;;;4990734;28;20524;-50
2022/01/16 08:33:29;;;;;;;48.38;27.10;;;2.60;99.90;;;;;;4989456;28;20133;-52
2022/01/16 08:35:55;;;;;;;50.13;25.13;;;2.50;99.90;;;;;;4990605;28;20159;-53
2022/01/16 08:38:26;;;;;;;57.13;27.63;;;2.50;99.90;;;;;;4973295;28;20524;-51
2022/01/16 08:40:52;;;;;;;58.42;27.35;;;2.50;99.90;;;;;;4990664;28;20041;-53
2022/01/16 08:43:17;;;;;;;59.67;27.23;;;2.50;99.90;;;;;;4990321;28;20031;-53
2022/01/16 08:45:43;;;;;;;57.55;28.10;;;2.50;99.90;;;;;;4972927;28;20476;-52
2022/01/16 08:48:09;;;;;;;55.45;25.13;;;2.50;99.90;;;;;;4990477;28;20018;-52
2022/01/16 08:50:36;;;;;;;58.75;26.95;;;2.50;99.90;;;;;;4990770;28;20520;-51
2022/01/16 08:53:02;;;;;;;54.40;26.27;;;2.50;99.90;;;;;;4990751;28;20076;-50
2022/01/16 08:55:28;;;;;;;59.85;27.40;;;2.50;99.90;;;;;;4991497;28;20049;-51
2022/01/16 08:57:58;;;;;;;55.83;28.17;;;2.50;99.90;;;;;;4992179;28;20397;-52
2022/01/16 09:00:23;;;;;;;62.10;28.27;;;2.60;99.90;;;;;;4990445;28;20080;-50
2022/01/16 09:02:49;;;;;;;60.80;29.13;;;2.50;99.90;;;;;;4991026;28;20113;-51
2022/01/16 09:05:15;;;;;;;65.72;29.65;;;2.50;99.90;;;;;;4990883;28;20161;-50
2022/01/16 09:07:40;;;;;;;65.57;28.75;;;2.50;99.90;;;;;;4990725;28;20034;-52
2022/01/16 09:10:07;;;;;;;65.28;28.42;;;2.50;99.90;;;;;;4974761;28;20046;-50
2022/01/16 09:12:34;;;;;;;70.70;32.80;;;2.50;99.90;;;;;;4974241;28;20393;-53
2022/01/16 09:15:00;;;;;;;63.83;28.90;;;2.50;99.90;;;;;;4989707;28;20026;-53
2022/01/16 09:17:26;;;;;;;63.88;30.15;;;2.50;99.90;;;;;;4990626;28;20109;-50
2022/01/16 09:19:51;;;;;;;64.25;30.10;;;2.40;99.90;;;;;;4973445;28;20397;-52
2022/01/16 09:22:17;;;;;;;82.65;30.75;;;2.50;99.90;;;;;;4990668;28;20241;-53
2022/01/16 09:24:42;;;;;;;69.45;30.05;;;2.50;99.90;;;;;;4990919;28;20042;-50
2022/01/16 09:27:08;;;;;;;60.83;29.27;;;2.50;99.90;;;;;;4973984;28;20061;-51
2022/01/16 09:29:34;;;;;;;75.78;31.05;;;2.40;99.90;;;;;;4991655;28;20117;-53
2022/01/16 09:32:00;;;;;;;72.13;31.42;;;2.40;99.90;;;;;;4973888;28;20298;-52
2022/01/16 09:34:27;;;;;;;76.05;32.63;;;2.40;99.90;;;;;;4991150;28;20060;-54
2022/01/16 09:36:53;;;;;;;70.63;31.05;;;2.40;99.90;;;;;;4991155;28;20026;-51
2022/01/16 09:39:18;;;;;;;73.60;32.55;;;2.40;99.90;;;;;;4991569;28;20113;-52
2022/01/16 09:41:45;;;;;;;70.60;30.17;;;2.40;99.90;;;;;;4990411;28;20417;-51
2022/01/16 09:44:11;;;;;;;66.45;31.55;;;2.40;99.90;;;;;;4990856;28;20085;-51
2022/01/16 09:46:37;;;;;;;73.05;33.38;;;2.40;99.90;;;;;;4990119;28;20042;-51
2022/01/16 09:49:04;;;;;;;72.68;31.02;;;2.40;99.90;;;;;;4991235;28;20031;-52
2022/01/16 09:51:31;;;;;;;69.10;31.25;;;2.40;99.90;;;;;;4989950;28;20034;-53
2022/01/16 09:53:57;;;;;;;74.72;32.92;;;2.50;99.90;;;;;;4990997;28;20592;-53
2022/01/16 09:56:24;;;;;;;70.88;31.65;;;2.50;99.90;;;;;;4991367;28;20026;-53
2022/01/16 09:58:50;;;;;;;72.78;30.67;;;2.50;99.90;;;;;;4991569;28;20026;-54
2022/01/16 10:01:16;;;;;;;72.32;31.90;;;2.50;99.90;;;;;;4990264;28;20113;-55
2022/01/16 10:03:44;;;;;;;77.78;31.92;;;2.50;99.90;;;;;;4990192;28;20555;-52
2022/01/16 10:06:17;;;;;;;70.82;32.15;;;2.50;99.90;;;;;;4991710;28;20026;-51
2022/01/16 10:08:43;;;;;;;71.65;31.40;;;2.50;99.90;;;;;;4991272;28;20054;-50
2022/01/16 10:11:29;;;;;;;83.13;33.70;;;2.60;99.90;;;;;;4991444;28;20017;-52
2022/01/16 10:14:02;;;;;;;65.72;32.05;;;2.60;99.90;;;;;;4990222;28;20061;-54
2022/01/16 10:16:33;;;;;;;70.78;30.35;;;2.60;99.90;;;;;;4972957;28;20117;-51
2022/01/16 10:18:59;;;;;;;72.05;31.58;;;2.60;99.90;;;;;;4989045;28;20037;-54
2022/01/16 10:21:38;;;;;;;72.90;32.42;;;2.60;99.90;;;;;;4989901;28;20030;-53
2022/01/16 10:24:20;;;;;;;75.38;30.50;;;2.60;99.90;;;;;;4989801;28;20026;-53
2022/01/16 10:26:48;;;;;;;72.68;30.27;;;2.60;99.90;;;;;;4989490;28;20564;-55
2022/01/16 10:29:16;;;;;;;77.63;31.08;;;2.60;99.90;;;;;;4971135;28;20140;-54
2022/01/16 10:31:41;;;;;;;76.65;31.92;;;2.60;99.90;;;;;;4989771;28;20360;-52
2022/01/16 10:34:27;;;;;;;76.18;31.00;;;2.60;99.90;;;;;;4990975;28;20783;-51
2022/01/16 10:36:53;;;;;;;68.65;30.15;;;2.60;99.90;;;;;;4990186;28;20484;-51
2022/01/16 10:39:19;;;;;;;74.75;33.38;;;2.70;99.90;;;;;;4989522;28;20037;-51
2022/01/16 10:41:45;;;;;;;72.70;31.23;;;2.70;99.90;;;;;;4990240;28;20502;-52
2022/01/16 10:44:29;;;;;;;67.38;30.30;;;2.70;99.90;;;;;;5018376;23;20045;-57
2022/01/16 10:46:55;;;;;;;74.90;31.17;;;2.70;99.90;;;;;;5008452;28;20061;-55
2022/01/16 10:49:21;;;;;;;78.30;31.13;;;2.70;99.90;;;;;;4990418;28;20492;-57
2022/01/16 10:52:01;;;;;;;66.93;30.88;;;2.70;99.90;;;;;;5008421;28;20100;-56
2022/01/16 10:54:36;;;;;;;69.32;29.48;;;2.70;99.90;;;;;;5002415;28;20566;-56
2022/01/16 10:57:27;;;;;;;72.38;30.52;;;2.70;99.90;;;;;;4998271;28;20507;-53
2022/01/16 11:00:10;;;;;;;70.97;30.02;;;2.70;99.90;;;;;;4989969;28;20045;-58
2022/01/16 11:02:36;;;;;;;64.28;27.23;;;2.80;99.90;;;;;;4997529;28;20038;-58
2022/01/16 11:05:10;;;;;;;61.95;28.25;;;2.80;99.90;;;;;;4995418;28;20570;-56
2022/01/16 11:07:37;;;;;;;67.47;28.27;;;2.80;99.90;;;;;;4998167;28;20033;-55
2022/01/16 11:10:30;;;;;;;65.65;27.90;;;2.80;99.90;;;;;;4996926;28;20026;-57
2022/01/16 11:13:01;;;;;;;61.10;27.83;;;2.80;99.90;;;;;;4998729;28;20030;-56
2022/01/16 11:15:28;;;;;;;59.72;27.98;;;2.80;99.90;;;;;;4998048;28;20083;-59
2022/01/16 11:17:54;;;;;;;58.40;25.45;;;2.80;99.90;;;;;;4998168;28;20405;-55
2022/01/16 11:20:31;;;;;;;57.63;25.85;;;2.80;99.90;;;;;;4997024;28;20022;-57
2022/01/16 11:23:00;;;;;;;56.30;26.08;;;2.80;99.90;;;;;;4997453;28;20026;-54
2022/01/16 11:25:31;;;;;;;53.60;24.83;;;2.90;99.90;;;;;;4998185;28;20539;-58
2022/01/16 11:28:02;;;;;;;47.15;21.88;;;2.90;99.90;;;;;;4997269;28;20015;-55
2022/01/16 11:30:31;;;;;;;52.72;23.05;;;2.90;99.90;;;;;;4998223;28;20072;-55
2022/01/16 11:32:57;;;;;;;49.20;24.27;;;2.90;99.90;;;;;;4997169;28;20480;-56
2022/01/16 11:35:25;;;;;;;53.55;24.75;;;2.90;99.90;;;;;;4997788;28;20025;-56
2022/01/16 11:37:51;;;;;;;54.38;25.10;;;2.90;99.90;;;;;;4997623;28;20134;-59
2022/01/16 11:40:44;;;;;;;47.97;21.90;;;2.90;99.90;;;;;;4997455;28;20403;-55
2022/01/16 11:43:32;;;;;;;47.80;22.02;;;3.00;99.90;;;;;;4996131;28;20057;-57
2022/01/16 11:46:12;;;;;;;44.88;22.10;;;3.00;99.90;;;;;;5000721;28;20037;-57
2022/01/16 11:48:39;;;;;;;42.80;22.00;;;3.00;99.90;;;;;;5001259;28;20026;-59
2022/01/16 11:51:25;;;;;;;53.70;22.42;;;3.00;99.90;;;;;;4982846;28;20040;-55
2022/01/16 11:54:06;;;;;;;50.85;23.10;;;3.00;99.90;;;;;;4999689;28;20520;-54
2022/01/16 11:56:38;;;;;;;43.42;21.45;;;3.10;99.90;;;;;;4983428;28;20466;-55
2022/01/16 11:59:19;;;;;;;45.22;23.75;;;3.10;99.90;;;;;;4982867;28;20037;-57
2022/01/16 12:01:46;;;;;;;51.97;24.40;;;3.10;99.90;;;;;;5000234;28;20117;-56
2022/01/16 12:04:30;;;;;;;49.90;23.88;;;3.10;99.90;;;;;;5000630;28;20022;-54
2022/01/16 12:07:15;;;;;;;54.03;27.85;;;3.20;99.90;;;;;;4999976;28;20018;-57
2022/01/16 12:09:53;;;;;;;54.88;25.75;;;3.20;99.90;;;;;;5000598;28;20014;-59
2022/01/16 12:12:18;;;;;;;50.50;25.27;;;3.20;99.90;;;;;;4982933;28;20022;-56
2022/01/16 12:14:56;;;;;;;51.17;25.38;;;3.20;99.90;;;;;;4999779;28;20037;-54
2022/01/16 12:20:11;;;;;;;52.53;26.92;;;3.20;99.90;;;;;;4996724;28;20462;-57
2022/01/16 12:22:41;;;;;;;60.40;27.48;;;3.20;99.90;;;;;;4995168;28;20040;-56
2022/01/16 12:25:08;;;;;;;57.00;26.55;;;3.30;99.90;;;;;;4997875;28;20049;-55
2022/01/16 12:27:37;;;;;;;57.90;26.77;;;3.30;99.90;;;;;;4998190;28;20088;-54
2022/01/16 12:30:31;;;;;;;62.08;29.05;;;3.30;99.90;;;;;;4995313;28;20037;-55
2022/01/16 12:33:15;;;;;;;68.65;31.27;;;3.30;99.90;;;;;;4999753;28;20547;-53
2022/01/16 12:35:41;;;;;;;63.35;30.67;;;3.40;99.90;;;;;;4999034;28;20476;-53
2022/01/16 12:38:10;;;;;;;75.18;31.88;;;3.40;99.90;;;;;;5001048;28;20128;-56
2022/01/16 12:40:38;;;;;;;69.03;32.33;;;3.40;99.90;;;;;;4999436;28;20034;-59
2022/01/16 12:43:08;;;;;;;69.53;33.22;;;3.50;99.90;;;;;;4999316;28;20029;-58
2022/01/16 12:45:38;;;;;;;73.35;33.95;;;3.40;99.90;;;;;;4998969;28;20085;-60
2022/01/16 12:48:05;;;;;;;74.25;34.85;;;3.50;99.90;;;;;;4999240;28;20356;-57
2022/01/16 12:50:31;;;;;;;75.72;34.22;;;3.50;99.90;;;;;;4999580;28;20045;-57
2022/01/16 12:52:56;;;;;;;71.38;34.17;;;3.50;99.90;;;;;;4999143;28;20023;-57
2022/01/16 12:55:32;;;;;;;76.40;33.05;;;3.50;99.90;;;;;;4998471;28;20085;-55
2022/01/16 12:58:17;;;;;;;;;;;3.50;99.90;;;;;;4979803;28;20080;-59
2022/01/16 13:01:00;;;;;;;64.72;31.45;;;3.50;99.90;;;;;;4999204;28;19920;-59
2022/01/16 13:03:27;;;;;;;73.28;30.83;;;3.50;99.90;;;;;;4998362;28;20557;-57
2022/01/16 13:06:16;;;;;;;74.63;33.08;;;3.60;99.90;;;;;;5000360;28;20022;-55
2022/01/16 13:08:54;;;;;;;71.70;34.28;;;3.60;99.90;;;;;;4999124;28;20102;-53
2022/01/16 13:11:21;;;;;;;71.97;31.95;;;3.70;99.90;;;;;;4999939;28;20183;-57
2022/01/16 13:13:47;;;;;;;70.03;33.08;;;3.70;99.90;;;;;;4998636;28;20290;-56
2022/01/16 13:16:18;;;;;;;69.05;33.13;;;3.80;99.90;;;;;;4998948;28;20049;-57
2022/01/16 13:19:17;;;;;;;71.32;32.22;;;3.80;99.90;;;;;;4998427;28;20179;-51
2022/01/16 13:22:11;;;;;;;70.90;32.08;;;3.80;99.90;;;;;;4999532;28;20424;-55
2022/01/16 13:24:48;;;;;;;65.50;34.05;;;3.90;99.90;;;;;;5000462;28;20030;-54
2022/01/16 13:27:20;;;;;;;67.47;31.90;;;3.90;99.90;;;;;;4999708;28;20377;-54